Time;durP1;ratioP1;P1;durP2;ratioP2;P2;SDS_P1;SDS_P2;PMS_P1;PMS_P2;Temp;Humidity;BMP_temperature;BMP_pressure;BME280_temperature;BME280_humidity;BME280_pressure;Samples;Min_cycle;Max_cycle;Signal;HPM_P1;HPM_P2
2023/09/22 00:00:55;;;;;;;2.00;1.80;;;15.90;99.90;;;;;;5045404;28;20460;-82
2023/09/22 00:03:22;;;;;;;2.07;1.60;;;15.80;99.90;;;;;;5032780;28;20489;-82
2023/09/22 00:05:47;;;;;;;1.93;1.50;;;15.80;99.90;;;;;;5051489;28;20428;-83
2023/09/22 00:08:13;;;;;;;1.83;1.43;;;15.80;99.90;;;;;;5052812;28;20519;-83
2023/09/22 00:10:38;;;;;;;2.50;1.90;;;15.80;99.90;;;;;;5051544;28;20178;-83
2023/09/22 00:13:05;;;;;;;2.97;1.63;;;15.80;99.90;;;;;;5051506;28;20278;-83
2023/09/22 00:15:32;;;;;;;3.00;1.87;;;15.80;99.90;;;;;;5052053;28;20287;-83
2023/09/22 00:17:58;;;;;;;4.77;2.10;;;15.70;99.90;;;;;;5044097;28;20447;-84
2023/09/22 00:20:23;;;;;;;4.43;1.97;;;15.70;99.90;;;;;;5052184;28;20551;-82
2023/09/22 00:22:49;;;;;;;3.47;2.50;;;15.60;99.90;;;;;;5051985;28;20715;-82
2023/09/22 00:25:15;;;;;;;4.60;3.00;;;15.50;99.90;;;;;;5052029;28;20174;-83
2023/09/22 00:27:41;;;;;;;4.03;2.43;;;15.50;99.90;;;;;;5034602;28;20185;-82
2023/09/22 00:30:09;;;;;;;4.17;2.67;;;15.40;99.90;;;;;;5051339;28;20916;-83
2023/09/22 00:32:35;;;;;;;8.87;2.63;;;15.30;99.90;;;;;;5034388;28;20201;-82
2023/09/22 00:35:01;;;;;;;4.00;2.20;;;15.20;99.90;;;;;;5050508;28;20800;-83
2023/09/22 00:37:28;;;;;;;3.37;2.60;;;15.20;99.90;;;;;;5034710;28;20240;-84
2023/09/22 00:39:54;;;;;;;5.53;2.90;;;15.10;99.90;;;;;;5051966;28;21692;-82
2023/09/22 00:42:19;;;;;;;3.60;2.60;;;15.10;99.90;;;;;;5051860;28;20475;-81
2023/09/22 00:44:45;;;;;;;4.03;2.27;;;15.00;99.90;;;;;;5033387;28;20443;-84
2023/09/22 00:47:14;;;;;;;4.10;2.97;;;14.90;99.90;;;;;;5051271;28;20208;-82
2023/09/22 00:49:42;;;;;;;3.17;2.43;;;14.90;99.90;;;;;;5051848;28;20182;-83
2023/09/22 00:52:08;;;;;;;5.80;3.17;;;14.90;99.90;;;;;;5031764;28;20478;-82
2023/09/22 00:54:34;;;;;;;4.00;3.20;;;14.80;1.00;;;;;;5049580;28;20440;-82
2023/09/22 00:57:01;;;;;;;4.73;2.80;;;14.80;1.00;;;;;;5049646;28;20936;-82
2023/09/22 00:59:26;;;;;;;4.13;3.00;;;14.70;1.00;;;;;;5049397;28;20273;-82
2023/09/22 01:01:54;;;;;;;4.27;3.10;;;14.70;1.00;;;;;;5048721;28;20558;-80
2023/09/22 01:04:20;;;;;;;4.77;3.27;;;14.60;1.00;;;;;;5050225;28;20178;-83
2023/09/22 01:06:46;;;;;;;5.97;3.00;;;14.60;1.00;;;;;;5030306;28;20447;-82
2023/09/22 01:09:12;;;;;;;3.80;3.27;;;14.60;1.00;;;;;;5055527;28;20231;-82
2023/09/22 01:11:38;;;;;;;6.17;2.90;;;14.60;1.00;;;;;;5049361;28;21076;-82
2023/09/22 01:14:04;;;;;;;7.17;3.30;;;14.50;1.00;;;;;;5050114;28;20557;-82
2023/09/22 01:16:29;;;;;;;4.70;2.93;;;14.50;1.00;;;;;;5050180;28;20433;-82
2023/09/22 01:18:56;;;;;;;6.80;2.70;;;14.50;1.00;;;;;;5048774;28;20741;-82
2023/09/22 01:21:30;;;;;;;3.73;2.57;;;14.50;1.00;;;;;;5049870;28;20209;-82
2023/09/22 01:23:57;;;;;;;5.40;3.10;;;14.40;1.00;;;;;;5051651;28;20810;-82
2023/09/22 01:26:23;;;;;;;6.37;3.00;;;14.40;1.00;;;;;;5054005;28;20956;-81
2023/09/22 01:28:49;;;;;;;8.63;3.17;;;14.40;1.00;;;;;;5035796;28;20435;-83
2023/09/22 01:31:15;;;;;;;5.50;3.03;;;14.40;1.00;;;;;;5055871;28;20233;-83
2023/09/22 01:33:40;;;;;;;6.00;2.53;;;14.40;1.00;;;;;;5037616;28;20182;-82
2023/09/22 01:36:06;;;;;;;3.90;2.57;;;14.40;1.00;;;;;;5057476;28;20489;-83
2023/09/22 01:38:32;;;;;;;3.60;3.00;;;14.30;1.00;;;;;;5057453;28;20179;-83
2023/09/22 01:40:58;;;;;;;4.70;3.03;;;14.30;1.00;;;;;;5059764;28;20201;-83
2023/09/22 01:43:24;;;;;;;5.67;3.00;;;14.30;1.00;;;;;;5056441;28;20182;-84
2023/09/22 01:45:50;;;;;;;6.30;3.37;;;14.30;1.00;;;;;;5057587;28;20440;-83
2023/09/22 01:48:15;;;;;;;5.23;2.70;;;14.30;1.00;;;;;;5057281;28;20956;-83
2023/09/22 01:50:41;;;;;;;12.50;3.10;;;14.20;1.00;;;;;;5056330;28;20192;-83
2023/09/22 01:53:09;;;;;;;3.67;2.73;;;14.30;1.00;;;;;;5056340;28;20675;-82
2023/09/22 01:55:35;;;;;;;7.60;2.40;;;14.20;1.00;;;;;;5054774;28;20182;-83
2023/09/22 01:58:01;;;;;;;4.17;2.77;;;14.20;1.00;;;;;;5056697;28;20447;-84
2023/09/22 02:00:26;;;;;;;3.70;2.63;;;14.20;1.00;;;;;;5059057;28;20456;-82
2023/09/22 02:02:53;;;;;;;5.03;3.17;;;14.20;1.00;;;;;;5055804;28;20782;-83
2023/09/22 02:05:19;;;;;;;6.23;3.00;;;14.20;1.00;;;;;;5038755;28;20174;-82
2023/09/22 02:07:44;;;;;;;3.83;2.60;;;14.20;1.00;;;;;;5038635;28;20437;-83
2023/09/22 02:10:13;;;;;;;4.07;2.40;;;14.20;1.00;;;;;;5054631;28;20435;-83
2023/09/22 02:12:40;;;;;;;6.33;4.00;;;14.10;1.00;;;;;;5056267;28;20204;-82
2023/09/22 02:15:10;;;;;;;3.30;2.07;;;14.10;1.00;;;;;;5037833;28;20485;-83
2023/09/22 02:17:39;;;;;;;7.23;2.50;;;14.00;1.00;;;;;;5057970;28;20439;-82
2023/09/22 02:20:18;;;;;;;4.97;2.30;;;14.00;1.00;;;;;;5055541;28;20432;-83
2023/09/22 02:22:45;;;;;;;4.53;2.13;;;13.90;1.00;;;;;;5055859;28;20456;-85
2023/09/22 02:25:15;;;;;;;3.37;2.10;;;13.90;1.00;;;;;;5036113;28;20542;-82
2023/09/22 02:27:41;;;;;;;4.43;2.27;;;13.90;1.00;;;;;;5055056;28;20458;-83
2023/09/22 02:30:10;;;;;;;3.97;2.00;;;13.90;1.00;;;;;;5054583;28;20776;-83
2023/09/22 02:32:36;;;;;;;5.07;1.90;;;13.80;1.00;;;;;;5034703;28;20534;-83
2023/09/22 02:35:01;;;;;;;5.13;1.83;;;13.80;1.00;;;;;;5053070;28;20478;-83
2023/09/22 02:37:28;;;;;;;2.60;1.80;;;13.80;1.00;;;;;;5055405;28;20437;-82
2023/09/22 02:39:54;;;;;;;4.90;2.10;;;13.80;1.00;;;;;;5055745;28;20194;-83
2023/09/22 02:42:19;;;;;;;3.60;1.80;;;13.80;1.00;;;;;;5055411;28;20471;-83
2023/09/22 02:44:45;;;;;;;5.73;2.27;;;13.80;1.00;;;;;;5053266;28;20193;-85
2023/09/22 02:47:10;;;;;;;2.87;2.00;;;13.80;1.00;;;;;;5054708;28;20178;-83
2023/09/22 02:49:36;;;;;;;2.60;1.70;;;13.80;1.00;;;;;;5054478;28;20181;-83
2023/09/22 02:52:02;;;;;;;5.83;1.97;;;13.80;1.00;;;;;;5034482;28;20221;-83
2023/09/22 02:54:28;;;;;;;3.70;2.03;;;13.90;1.00;;;;;;5034606;28;20192;-83
2023/09/22 02:56:53;;;;;;;2.63;2.10;;;13.90;99.90;;;;;;5053777;28;20432;-84
2023/09/22 02:59:19;;;;;;;2.50;1.80;;;13.90;99.90;;;;;;5053662;28;20190;-82
2023/09/22 03:01:44;;;;;;;4.77;1.80;;;13.90;99.90;;;;;;5053937;28;20259;-83
2023/09/22 03:04:10;;;;;;;4.53;1.70;;;14.00;99.90;;;;;;5053857;28;20181;-82
2023/09/22 03:06:36;;;;;;;3.47;2.23;;;14.00;99.90;;;;;;5053898;28;20178;-82
2023/09/22 03:09:06;;;;;;;3.60;1.77;;;14.00;99.90;;;;;;5053882;28;20210;-83
2023/09/22 03:11:32;;;;;;;3.20;1.60;;;14.00;99.90;;;;;;5057617;28;20456;-83
2023/09/22 03:13:58;;;;;;;2.70;1.70;;;14.10;99.90;;;;;;5055550;28;20965;-83
2023/09/22 03:16:24;;;;;;;5.80;1.80;;;14.10;99.90;;;;;;5055528;28;20428;-82
2023/09/22 03:18:50;;;;;;;5.00;1.70;;;14.10;99.90;;;;;;5062101;28;20510;-83
2023/09/22 03:21:19;;;;;;;3.90;1.93;;;14.10;99.90;;;;;;5054461;28;20598;-83
2023/09/22 03:23:46;;;;;;;4.10;1.57;;;14.10;99.90;;;;;;5054976;28;20809;-84
2023/09/22 03:26:12;;;;;;;4.67;1.77;;;14.10;99.90;;;;;;5050367;28;20431;-82
2023/09/22 03:28:37;;;;;;;3.60;1.77;;;14.10;99.90;;;;;;5037821;28;20428;-83
2023/09/22 03:31:03;;;;;;;3.20;1.90;;;14.10;99.90;;;;;;5054851;28;20193;-83
2023/09/22 03:33:29;;;;;;;2.40;1.50;;;14.10;99.90;;;;;;5037583;28;20261;-84
2023/09/22 03:35:54;;;;;;;3.90;1.80;;;14.10;99.90;;;;;;5054959;28;20956;-83
2023/09/22 03:38:20;;;;;;;3.00;1.83;;;14.10;99.90;;;;;;5053570;28;20561;-84
2023/09/22 03:40:46;;;;;;;3.63;1.67;;;14.10;99.90;;;;;;5054960;28;20689;-82
2023/09/22 03:43:11;;;;;;;2.17;1.70;;;14.10;99.90;;;;;;5053736;28;20456;-82
2023/09/22 03:45:37;;;;;;;2.87;1.80;;;14.00;99.90;;;;;;5053256;28;20211;-82
2023/09/22 03:48:03;;;;;;;2.40;1.20;;;14.00;99.90;;;;;;5053272;28;20248;-82
2023/09/22 03:50:29;;;;;;;4.27;1.80;;;14.00;99.90;;;;;;5053266;28;20182;-84
2023/09/22 03:52:55;;;;;;;3.97;2.10;;;14.10;99.90;;;;;;5036098;28;20994;-82
2023/09/22 03:55:21;;;;;;;2.53;1.57;;;14.10;99.90;;;;;;5036152;28;20319;-82
2023/09/22 03:57:46;;;;;;;7.33;1.97;;;14.10;99.90;;;;;;5053516;28;20174;-80
2023/09/22 04:00:17;;;;;;;10.37;1.70;;;14.20;99.90;;;;;;5052882;28;20467;-83
2023/09/22 04:02:44;;;;;;;4.67;2.07;;;14.20;99.90;;;;;;5052023;28;20312;-84
2023/09/22 04:05:11;;;;;;;4.23;1.60;;;14.20;99.90;;;;;;5052319;28;20867;-83
2023/09/22 04:07:37;;;;;;;2.77;1.60;;;14.20;99.90;;;;;;5053087;28;20502;-83
2023/09/22 04:10:03;;;;;;;3.60;1.30;;;14.30;99.90;;;;;;5052258;28;20436;-79
2023/09/22 04:12:29;;;;;;;3.53;2.03;;;14.30;99.90;;;;;;5052838;28;20846;-82
2023/09/22 04:14:55;;;;;;;4.60;1.70;;;14.30;99.90;;;;;;5052170;28;20436;-83
2023/09/22 04:17:20;;;;;;;4.10;1.70;;;14.30;99.90;;;;;;5054552;28;20199;-82
2023/09/22 04:19:46;;;;;;;3.33;1.90;;;14.40;99.90;;;;;;5056515;28;20452;-82
2023/09/22 04:22:16;;;;;;;3.43;1.50;;;14.40;99.90;;;;;;5050656;28;20216;-83
2023/09/22 04:24:47;;;;;;;3.57;1.80;;;14.40;99.90;;;;;;5052913;28;20805;-82
2023/09/22 04:27:14;;;;;;;7.17;1.67;;;14.40;99.90;;;;;;5052130;28;20432;-82
2023/09/22 04:29:39;;;;;;;4.00;1.60;;;14.40;99.90;;;;;;5051512;28;20440;-82
2023/09/22 04:32:05;;;;;;;4.30;1.40;;;14.40;99.90;;;;;;5033897;28;20470;-83
2023/09/22 04:34:30;;;;;;;2.23;1.63;;;14.40;99.90;;;;;;5033407;28;20276;-83
2023/09/22 04:36:56;;;;;;;1.70;1.53;;;14.40;99.90;;;;;;5054282;28;20671;-82
2023/09/22 04:39:22;;;;;;;2.37;1.40;;;14.40;99.90;;;;;;5051518;28;20178;-82
2023/09/22 04:41:47;;;;;;;2.43;1.20;;;14.40;99.90;;;;;;5052125;28;20221;-83
2023/09/22 04:44:13;;;;;;;3.13;1.80;;;14.40;99.90;;;;;;5052843;28;20186;-83
2023/09/22 04:46:39;;;;;;;2.83;1.43;;;14.40;99.90;;;;;;5052310;28;20644;-83
2023/09/22 04:49:04;;;;;;;2.80;1.50;;;14.30;99.90;;;;;;5053754;28;20217;-80
2023/09/22 04:51:30;;;;;;;1.80;1.50;;;14.30;99.90;;;;;;5052027;28;20687;-84
2023/09/22 04:53:56;;;;;;;3.17;1.40;;;14.30;99.90;;;;;;5052881;28;20277;-84
2023/09/22 04:56:22;;;;;;;3.17;1.60;;;14.20;99.90;;;;;;5034873;28;20669;-83
2023/09/22 04:58:48;;;;;;;5.53;1.70;;;14.20;99.90;;;;;;5057956;28;20463;-84
2023/09/22 05:01:14;;;;;;;2.90;1.50;;;14.20;99.90;;;;;;5056106;28;20830;-83
2023/09/22 05:03:40;;;;;;;3.10;1.80;;;14.10;99.90;;;;;;5056830;28;20265;-83
2023/09/22 05:06:08;;;;;;;1.50;1.33;;;14.10;99.90;;;;;;5054832;28;20467;-81
2023/09/22 05:08:34;;;;;;;2.27;1.63;;;14.10;99.90;;;;;;5055520;28;20174;-82
2023/09/22 05:11:04;;;;;;;4.40;1.40;;;14.10;99.90;;;;;;5056651;28;20805;-82
2023/09/22 05:13:29;;;;;;;4.60;1.70;;;14.10;99.90;;;;;;5039682;28;20249;-83
2023/09/22 05:15:55;;;;;;;2.70;1.20;;;14.10;99.90;;;;;;5039186;28;20520;-83
2023/09/22 05:18:20;;;;;;;3.60;1.50;;;14.10;99.90;;;;;;5055245;28;20208;-81
2023/09/22 05:20:46;;;;;;;2.33;1.47;;;14.10;99.90;;;;;;5056333;28;20232;-83
2023/09/22 05:23:11;;;;;;;3.80;1.70;;;14.10;99.90;;;;;;5056362;28;20251;-83
2023/09/22 05:25:40;;;;;;;3.10;1.47;;;14.10;99.90;;;;;;5037602;28;20236;-85
2023/09/22 05:28:08;;;;;;;3.40;1.63;;;14.10;99.90;;;;;;5053382;28;20190;-81
2023/09/22 05:30:38;;;;;;;5.30;1.93;;;14.10;99.90;;;;;;5049461;28;20512;-83
2023/09/22 05:33:07;;;;;;;5.43;2.00;;;14.20;99.90;;;;;;5053660;28;20447;-83
2023/09/22 05:35:35;;;;;;;3.93;1.57;;;14.20;99.90;;;;;;5056285;28;20432;-83
2023/09/22 05:38:01;;;;;;;4.60;1.53;;;14.30;99.90;;;;;;5034352;28;20956;-83
2023/09/22 05:40:27;;;;;;;3.33;1.60;;;14.30;99.90;;;;;;5038258;28;20434;-83
2023/09/22 05:42:52;;;;;;;3.13;1.40;;;14.30;99.90;;;;;;5053408;28;20909;-82
2023/09/22 05:45:18;;;;;;;2.63;1.60;;;14.30;99.90;;;;;;5055602;28;20452;-83
2023/09/22 05:47:43;;;;;;;4.10;1.40;;;14.40;99.90;;;;;;5052558;28;20190;-82
2023/09/22 05:50:12;;;;;;;2.30;1.20;;;14.40;1.00;;;;;;5053703;28;20185;-82
2023/09/22 05:52:38;;;;;;;2.40;1.40;;;14.50;1.00;;;;;;5052167;28;20217;-80
2023/09/22 05:55:04;;;;;;;2.90;1.50;;;14.60;1.00;;;;;;5035290;28;20444;-83
2023/09/22 05:57:30;;;;;;;1.67;1.30;;;14.60;1.00;;;;;;5050494;28;20432;-84
2023/09/22 05:59:57;;;;;;;5.40;1.97;;;14.80;1.00;;;;;;5051272;28;20444;-83
2023/09/22 06:02:23;;;;;;;3.60;1.93;;;15.00;99.90;;;;;;5058564;28;20209;-83
2023/09/22 06:04:48;;;;;;;3.80;1.90;;;15.10;1.00;;;;;;5055774;28;20871;-82
2023/09/22 06:07:14;;;;;;;2.67;1.20;;;15.20;99.90;;;;;;5036270;28;20189;-82
2023/09/22 06:09:40;;;;;;;2.27;1.40;;;15.60;99.90;;;;;;5054274;28;20174;-83
2023/09/22 06:12:06;;;;;;;1.60;1.20;;;17.40;99.90;;;;;;5054582;28;20232;-84
2023/09/22 06:14:31;;;;;;;2.10;1.10;;;18.20;99.90;;;;;;5050731;28;20193;-84
2023/09/22 06:16:57;;;;;;;2.80;0.90;;;18.40;1.00;;;;;;5053351;28;20957;-82
2023/09/22 06:19:22;;;;;;;3.00;1.10;;;18.30;1.00;;;;;;5058016;28;20200;-83
2023/09/22 06:21:48;;;;;;;5.10;1.90;;;18.00;1.00;;;;;;5053627;28;20206;-83
2023/09/22 06:24:14;;;;;;;2.33;0.87;;;17.70;1.00;;;;;;5059597;28;20659;-83
2023/09/22 06:26:40;;;;;;;1.97;1.17;;;17.70;1.00;;;;;;5053705;28;20430;-81
2023/09/22 06:29:06;;;;;;;2.60;1.20;;;19.80;1.00;;;;;;5049079;28;20174;-84
2023/09/22 06:31:32;;;;;;;2.17;1.30;;;22.60;99.90;;;;;;5055826;28;20524;-83
2023/09/22 06:33:59;;;;;;;2.47;1.07;;;24.90;99.90;;;;;;5055385;28;20211;-84
2023/09/22 06:36:24;;;;;;;7.33;1.20;;;26.50;99.90;;;;;;5055581;28;20436;-81
2023/09/22 06:38:50;;;;;;;2.03;0.73;;;28.10;99.90;;;;;;5037695;28;20589;-84
2023/09/22 06:41:20;;;;;;;3.80;0.90;;;29.20;99.90;;;;;;5038240;28;20205;-84
2023/09/22 06:43:46;;;;;;;3.67;0.90;;;30.70;99.90;;;;;;5053653;28;20212;-84
2023/09/22 06:46:14;;;;;;;2.87;1.00;;;32.30;99.90;;;;;;5055840;28;20417;-84
2023/09/22 06:48:39;;;;;;;1.93;0.90;;;33.20;99.90;;;;;;5052608;28;20860;-84
2023/09/22 06:51:06;;;;;;;2.50;1.30;;;34.20;99.90;;;;;;5053931;28;20432;-83
2023/09/22 06:53:34;;;;;;;2.20;0.80;;;34.20;99.90;;;;;;5056261;28;20182;-84
2023/09/22 06:56:06;;;;;;;2.20;1.20;;;33.40;99.90;;;;;;5057104;28;20435;-84
2023/09/22 06:58:33;;;;;;;2.03;0.90;;;31.60;99.90;;;;;;5055939;28;20436;-84
2023/09/22 07:01:07;;;;;;;2.37;1.30;;;30.00;99.90;;;;;;5030507;28;20513;-83
2023/09/22 07:03:33;;;;;;;3.13;0.90;;;29.50;99.90;;;;;;5054766;28;20436;-83
2023/09/22 07:05:59;;;;;;;2.47;0.90;;;30.10;99.90;;;;;;5054887;28;20465;-84
2023/09/22 07:08:25;;;;;;;3.33;1.10;;;31.70;99.90;;;;;;5054558;28;20193;-84
2023/09/22 07:10:54;;;;;;;2.40;1.07;;;32.60;99.90;;;;;;5057849;28;21083;-84
2023/09/22 07:13:19;;;;;;;2.07;0.77;;;34.30;99.90;;;;;;5061454;28;20205;-82
2023/09/22 07:15:45;;;;;;;1.67;0.90;;;35.70;99.90;;;;;;5047716;28;20445;-83
2023/09/22 07:18:11;;;;;;;2.90;0.90;;;36.00;99.90;;;;;;5046427;28;20188;-83
2023/09/22 07:20:37;;;;;;;1.73;0.87;;;36.70;99.90;;;;;;5052036;28;22454;-83
2023/09/22 07:23:03;;;;;;;1.40;0.70;;;37.20;99.90;;;;;;5052564;28;20754;-83
2023/09/22 07:25:28;;;;;;;2.00;0.97;;;37.40;99.90;;;;;;5052477;28;20486;-82
2023/09/22 07:27:54;;;;;;;1.67;0.70;;;37.80;99.90;;;;;;5053626;28;20201;-83
2023/09/22 07:30:19;;;;;;;2.90;1.10;;;37.80;99.90;;;;;;5048582;28;20274;-83
2023/09/22 07:32:45;;;;;;;1.60;0.83;;;37.90;99.90;;;;;;5034028;28;20209;-83
2023/09/22 07:35:11;;;;;;;1.90;0.87;;;38.00;99.90;;;;;;5052691;28;20186;-83
2023/09/22 07:37:37;;;;;;;1.83;0.73;;;38.80;99.90;;;;;;5052690;28;20766;-83
2023/09/22 07:40:08;;;;;;;2.70;0.90;;;39.30;99.90;;;;;;5052541;28;20193;-83
2023/09/22 07:42:34;;;;;;;3.63;1.10;;;39.10;99.90;;;;;;5046834;28;20907;-84
2023/09/22 07:45:00;;;;;;;3.30;0.90;;;40.20;99.90;;;;;;5044007;28;20571;-84
2023/09/22 07:47:25;;;;;;;1.63;0.73;;;40.90;99.90;;;;;;5053278;28;20170;-83
2023/09/22 07:49:54;;;;;;;3.10;1.00;;;40.70;99.90;;;;;;5039501;28;20185;-83
2023/09/22 07:52:20;;;;;;;1.83;1.07;;;40.70;99.90;;;;;;5061120;28;20201;-83
2023/09/22 07:54:45;;;;;;;2.70;1.07;;;41.00;99.90;;;;;;5042341;28;20491;-84
2023/09/22 07:57:13;;;;;;;3.80;0.80;;;41.30;99.90;;;;;;5060838;28;20506;-83
2023/09/22 07:59:38;;;;;;;2.03;1.10;;;41.30;99.90;;;;;;5041032;28;20182;-84
2023/09/22 08:02:05;;;;;;;2.73;0.93;;;41.00;99.90;;;;;;5058808;28;20448;-83
2023/09/22 08:04:30;;;;;;;3.53;1.40;;;40.80;98.60;;;;;;5059300;28;20793;-83
2023/09/22 08:06:56;;;;;;;2.03;0.70;;;39.40;93.40;;;;;;5057245;28;20516;-83
2023/09/22 08:09:22;;;;;;;2.90;0.83;;;36.50;85.00;;;;;;5061196;28;20387;-83
2023/09/22 08:11:47;;;;;;;2.40;1.20;;;33.90;78.40;;;;;;5056712;28;20215;-81
2023/09/22 08:14:13;;;;;;;3.23;0.90;;;31.70;71.80;;;;;;5038164;28;20681;-83
2023/09/22 08:16:39;;;;;;;1.67;0.80;;;29.90;69.30;;;;;;5051382;28;20175;-82
2023/09/22 08:19:10;;;;;;;1.70;0.80;;;28.00;67.70;;;;;;5055564;28;20210;-81
2023/09/22 08:21:36;;;;;;;2.50;0.90;;;26.80;69.30;;;;;;5035188;28;20222;-82
2023/09/22 08:24:01;;;;;;;1.80;0.83;;;26.30;73.50;;;;;;5053120;28;20429;-81
2023/09/22 08:26:27;;;;;;;1.83;0.60;;;26.00;76.40;;;;;;5041103;28;20454;-83
2023/09/22 08:28:52;;;;;;;1.60;0.70;;;26.20;82.30;;;;;;5056835;28;20601;-83
2023/09/22 08:31:18;;;;;;;2.00;0.80;;;26.10;85.20;;;;;;5055632;28;20208;-83
2023/09/22 08:33:44;;;;;;;3.00;0.80;;;28.60;95.70;;;;;;5054886;28;20189;-83
2023/09/22 08:36:10;;;;;;;1.60;0.80;;;30.50;98.70;;;;;;5056648;28;20174;-82
2023/09/22 08:38:35;;;;;;;4.87;1.10;;;33.20;99.90;;;;;;5054789;28;20409;-83
2023/09/22 08:41:04;;;;;;;6.07;1.10;;;34.90;99.90;;;;;;5055105;28;20189;-83
2023/09/22 08:43:32;;;;;;;1.67;0.83;;;36.10;99.90;;;;;;5056386;28;20212;-84
2023/09/22 08:45:59;;;;;;;1.40;0.70;;;37.20;99.90;;;;;;5038568;28;20425;-84
2023/09/22 08:48:25;;;;;;;2.23;0.77;;;38.10;99.90;;;;;;5056964;28;20444;-84
2023/09/22 08:50:50;;;;;;;2.33;0.73;;;38.40;99.90;;;;;;5058676;28;20879;-84
2023/09/22 08:53:17;;;;;;;4.63;1.27;;;39.00;99.90;;;;;;5056742;28;20224;-84
2023/09/22 08:55:43;;;;;;;5.37;1.30;;;39.10;99.90;;;;;;5042095;28;20280;-84
2023/09/22 08:58:08;;;;;;;2.70;0.90;;;39.20;99.90;;;;;;5056485;28;20428;-84
2023/09/22 09:00:34;;;;;;;3.30;0.90;;;39.70;99.90;;;;;;5056265;28;20420;-84
2023/09/22 09:03:09;;;;;;;2.03;1.10;;;39.30;99.90;;;;;;5056892;28;20205;-84
2023/09/22 09:05:36;;;;;;;2.27;0.93;;;38.50;98.90;;;;;;5050049;28;20184;-83
2023/09/22 09:08:19;;;;;;;4.00;0.97;;;37.60;94.60;;;;;;5056189;28;20437;-83
2023/09/22 09:10:46;;;;;;;2.33;0.80;;;36.80;92.30;;;;;;5055941;28;20503;-83
2023/09/22 09:13:14;;;;;;;2.27;0.93;;;36.30;90.20;;;;;;5055990;28;20501;-81
2023/09/22 09:15:54;;;;;;;2.00;1.10;;;37.20;95.90;;;;;;5053285;28;20451;-83
2023/09/22 09:18:22;;;;;;;1.90;1.00;;;37.50;97.20;;;;;;5040616;28;20986;-82
2023/09/22 09:21:05;;;;;;;2.90;1.10;;;37.30;94.80;;;;;;5062971;28;20501;-83
2023/09/22 09:23:31;;;;;;;2.80;0.80;;;37.80;97.20;;;;;;5056368;28;20788;-82
2023/09/22 09:25:56;;;;;;;2.10;1.00;;;38.60;99.90;;;;;;5055710;28;20444;-83
2023/09/22 09:28:23;;;;;;;1.97;1.23;;;38.90;99.90;;;;;;5054603;28;20195;-83
2023/09/22 09:30:50;;;;;;;1.40;0.80;;;38.80;99.90;;;;;;5053564;28;20214;-82
2023/09/22 09:33:19;;;;;;;2.90;1.10;;;38.20;93.60;;;;;;5052698;28;20467;-82
2023/09/22 09:35:44;;;;;;;3.17;1.17;;;38.10;94.70;;;;;;5025421;28;20441;-82
2023/09/22 09:38:11;;;;;;;2.17;0.90;;;38.40;95.90;;;;;;5050874;28;20486;-82
2023/09/22 09:40:37;;;;;;;3.63;1.10;;;38.50;95.40;;;;;;5049220;28;20186;-82
2023/09/22 09:43:11;;;;;;;3.97;0.97;;;38.80;94.30;;;;;;5050697;28;20517;-82
2023/09/22 09:45:49;;;;;;;3.80;1.20;;;38.40;93.60;;;;;;5050047;28;20185;-83
2023/09/22 09:48:16;;;;;;;1.67;0.90;;;38.20;91.00;;;;;;5033012;28;20436;-81
2023/09/22 09:50:53;;;;;;;3.87;1.47;;;38.20;90.30;;;;;;5038515;28;20432;-82
2023/09/22 09:53:41;;;;;;;1.73;0.80;;;38.20;89.60;;;;;;5037344;28;20476;-82
2023/09/22 09:56:08;;;;;;;1.67;1.00;;;37.70;80.60;;;;;;5054742;28;20444;-81
2023/09/22 09:58:35;;;;;;;2.63;0.90;;;37.40;79.20;;;;;;5057211;28;20444;-82
2023/09/22 10:01:02;;;;;;;2.77;1.20;;;37.30;77.00;;;;;;5062720;28;20471;-81
2023/09/22 10:03:28;;;;;;;2.33;0.90;;;36.30;68.80;;;;;;5058264;28;20476;-83
2023/09/22 10:05:55;;;;;;;2.00;0.90;;;35.70;65.30;;;;;;5054911;28;20455;-83
2023/09/22 10:08:23;;;;;;;2.47;0.80;;;35.90;66.00;;;;;;5053635;28;20225;-80
2023/09/22 10:10:50;;;;;;;1.80;0.90;;;34.80;60.50;;;;;;5047073;28;20834;-84
2023/09/22 10:13:16;;;;;;;1.67;0.80;;;35.10;64.80;;;;;;5046693;28;20953;-83
2023/09/22 10:15:55;;;;;;;2.27;1.17;;;35.00;62.90;;;;;;5059303;28;20462;-83
2023/09/22 10:18:41;;;;;;;1.57;0.87;;;33.70;52.80;;;;;;5053493;28;20438;-83
2023/09/22 10:21:07;;;;;;;1.87;0.80;;;34.20;53.80;;;;;;5051667;28;20494;-84
2023/09/22 10:23:33;;;;;;;2.63;1.30;;;33.80;52.60;;;;;;5053395;28;21008;-84
2023/09/22 10:26:04;;;;;;;2.20;0.90;;;33.80;53.30;;;;;;5052254;28;20194;-81
2023/09/22 10:28:30;;;;;;;1.97;0.90;;;33.50;53.10;;;;;;5053839;28;20511;-81
2023/09/22 10:30:58;;;;;;;3.53;0.90;;;32.20;49.70;;;;;;5049636;28;20554;-81
2023/09/22 10:33:25;;;;;;;1.80;0.93;;;32.40;52.90;;;;;;5051538;28;20262;-81
2023/09/22 10:35:51;;;;;;;1.67;0.93;;;31.40;49.00;;;;;;5049876;28;20443;-81
2023/09/22 10:38:19;;;;;;;3.03;1.20;;;30.30;47.20;;;;;;5051745;28;20430;-81
2023/09/22 10:41:03;;;;;;;3.23;1.07;;;29.40;47.10;;;;;;5051866;28;20474;-82
2023/09/22 10:43:32;;;;;;;2.80;1.10;;;28.30;48.80;;;;;;5052727;28;21309;-81
2023/09/22 10:45:59;;;;;;;1.80;0.90;;;27.50;49.80;;;;;;5049238;28;20519;-82
2023/09/22 10:48:31;;;;;;;2.77;1.23;;;27.00;49.90;;;;;;5052628;28;20503;-82
2023/09/22 10:50:57;;;;;;;2.50;0.90;;;26.70;50.80;;;;;;5051946;28;20525;-82
2023/09/22 10:53:22;;;;;;;2.57;0.80;;;26.10;51.50;;;;;;5055476;28;20476;-82
2023/09/22 10:55:48;;;;;;;1.90;1.00;;;25.40;51.70;;;;;;5057885;28;20232;-82
2023/09/22 10:58:19;;;;;;;2.90;0.90;;;25.00;51.20;;;;;;5038410;28;20188;-82
2023/09/22 11:01:04;;;;;;;1.60;0.80;;;25.20;53.40;;;;;;5057443;28;20444;-81
2023/09/22 11:03:32;;;;;;;2.70;1.20;;;25.10;55.20;;;;;;5049100;28;20813;-82
2023/09/22 11:05:59;;;;;;;1.30;0.90;;;25.00;57.70;;;;;;5056147;28;20881;-81
2023/09/22 11:08:24;;;;;;;3.03;1.27;;;26.90;65.30;;;;;;5052613;28;21040;-81
2023/09/22 11:10:51;;;;;;;2.33;1.47;;;27.60;70.70;;;;;;5055561;28;20588;-82
2023/09/22 11:13:18;;;;;;;3.13;0.97;;;29.20;80.20;;;;;;5039425;28;20207;-82
2023/09/22 11:15:57;;;;;;;2.10;1.03;;;30.90;87.90;;;;;;5035278;28;20498;-81
2023/09/22 11:18:33;;;;;;;2.13;0.87;;;32.00;90.20;;;;;;5053193;28;20450;-82
2023/09/22 11:21:04;;;;;;;2.20;0.90;;;32.80;90.90;;;;;;5057816;28;20817;-81
2023/09/22 11:23:31;;;;;;;4.23;0.97;;;33.40;85.00;;;;;;5053457;28;20867;-82
2023/09/22 11:26:09;;;;;;;2.37;0.90;;;33.70;94.90;;;;;;5039426;28;20486;-82
2023/09/22 11:28:43;;;;;;;1.77;0.90;;;34.20;82.20;;;;;;5042053;28;20917;-81
2023/09/22 11:31:11;;;;;;;2.40;0.87;;;34.40;81.80;;;;;;5041104;28;21155;-80
2023/09/22 11:33:37;;;;;;;2.60;1.20;;;34.30;79.10;;;;;;5035466;28;20448;-82
2023/09/22 11:36:04;;;;;;;2.90;1.67;;;34.60;78.10;;;;;;5040615;28;20432;-82
2023/09/22 11:38:31;;;;;;;3.33;1.37;;;34.60;76.50;;;;;;5041750;28;20432;-82
2023/09/22 11:41:11;;;;;;;1.40;0.77;;;34.70;75.00;;;;;;5043252;28;21178;-80
2023/09/22 11:43:41;;;;;;;4.00;0.90;;;34.80;73.20;;;;;;5033565;28;20518;-82
2023/09/22 11:46:15;;;;;;;1.83;0.80;;;34.80;72.00;;;;;;5040701;28;20436;-82
2023/09/22 11:49:01;;;;;;;1.73;1.00;;;34.90;71.70;;;;;;5026051;28;20452;-82
2023/09/22 11:51:55;;;;;;;3.07;0.83;;;35.00;68.40;;;;;;5043259;28;20496;-82
2023/09/22 11:54:23;;;;;;;2.20;0.90;;;34.80;67.20;;;;;;5038792;28;21128;-82
2023/09/22 11:56:51;;;;;;;2.17;1.10;;;34.90;68.00;;;;;;5042813;28;20434;-82
2023/09/22 11:59:19;;;;;;;1.53;0.80;;;34.90;67.00;;;;;;5040141;28;20433;-81
2023/09/22 12:01:46;;;;;;;2.10;1.00;;;34.90;66.30;;;;;;5038380;28;20552;-82
2023/09/22 12:04:13;;;;;;;2.03;0.90;;;34.60;63.80;;;;;;5036352;28;20785;-82
2023/09/22 12:06:40;;;;;;;2.40;1.10;;;34.40;61.40;;;;;;5039662;28;20552;-82
2023/09/22 12:09:15;;;;;;;4.17;1.00;;;34.10;59.50;;;;;;5042851;28;20446;-82
2023/09/22 12:11:42;;;;;;;1.87;1.00;;;33.60;59.20;;;;;;5045979;28;20491;-82
2023/09/22 12:14:09;;;;;;;1.93;1.00;;;33.80;59.60;;;;;;5034906;28;20481;-80
2023/09/22 12:16:35;;;;;;;3.83;1.10;;;33.10;57.40;;;;;;5035203;28;20489;-81
2023/09/22 12:19:01;;;;;;;2.20;0.90;;;33.00;57.50;;;;;;5025991;28;20436;-84
2023/09/22 12:21:28;;;;;;;2.43;0.80;;;33.30;58.00;;;;;;5041593;28;20678;-82
2023/09/22 12:23:54;;;;;;;1.43;0.87;;;33.50;59.30;;;;;;5041028;28;20768;-81
2023/09/22 12:26:20;;;;;;;2.10;0.90;;;33.60;58.50;;;;;;5040734;28;20543;-81
2023/09/22 12:28:46;;;;;;;4.40;3.43;;;33.60;58.60;;;;;;5042069;28;20186;-81
2023/09/22 12:31:12;;;;;;;2.60;0.80;;;33.60;57.60;;;;;;5043274;28;20569;-82
2023/09/22 12:33:38;;;;;;;3.50;1.20;;;33.50;58.20;;;;;;5039265;28;20547;-82
2023/09/22 12:36:04;;;;;;;2.27;1.30;;;32.40;54.00;;;;;;5042862;28;20184;-82
2023/09/22 12:38:30;;;;;;;2.17;0.90;;;32.20;55.00;;;;;;5041971;28;20432;-81
2023/09/22 12:40:57;;;;;;;2.80;0.80;;;32.20;55.20;;;;;;5037883;28;20450;-82
2023/09/22 12:43:24;;;;;;;2.30;1.10;;;31.70;53.70;;;;;;5019281;28;20206;-82
2023/09/22 12:45:50;;;;;;;1.97;0.90;;;31.80;55.70;;;;;;5038816;28;20963;-82
2023/09/22 12:48:15;;;;;;;3.33;1.20;;;32.10;56.80;;;;;;5041966;28;20435;-81